Time;durP1;ratioP1;P1;durP2;ratioP2;P2;SDS_P1;SDS_P2;PMS_P1;PMS_P2;Temp;Humidity;BMP_temperature;BMP_pressure;BME280_temperature;BME280_humidity;BME280_pressure;Samples;Min_cycle;Max_cycle;Signal;HPM_P1;HPM_P2
2022/04/27 00:00:03;;;;;;;5.00;2.40;;;;;;;;;;5086818;28;20064;-68
2022/04/27 00:02:34;;;;;;;4.95;2.20;;;;;;;;;;5088255;28;20714;-72
2022/04/27 00:05:05;;;;;;;3.60;2.13;;;;;;;;;;5111560;28;20073;-68
2022/04/27 00:07:38;;;;;;;4.27;2.00;;;;;;;;;;5112123;28;20059;-68
2022/04/27 00:10:15;;;;;;;5.93;2.50;;;;;;;;;;5104656;28;20023;-70
2022/04/27 00:12:46;;;;;;;5.63;2.37;;;;;;;;;;5094713;28;20486;-67
2022/04/27 00:15:15;;;;;;;4.43;2.10;;;;;;;;;;5111521;28;20012;-70
2022/04/27 00:17:46;;;;;;;7.30;3.00;;;;;;;;;;5106990;28;20031;-68
2022/04/27 00:20:17;;;;;;;3.60;1.83;;;;;;;;;;5106946;28;20058;-69
2022/04/27 00:22:48;;;;;;;6.27;2.30;;;;;;;;;;5106531;28;20020;-68
2022/04/27 00:25:23;;;;;;;4.50;2.10;;;;;;;;;;5106715;28;20020;-69
2022/04/27 00:27:57;;;;;;;8.10;3.30;;;;;;;;;;5111983;28;20432;-71
2022/04/27 00:30:28;;;;;;;8.50;2.67;;;;;;;;;;5111979;28;20088;-66
2022/04/27 00:32:58;;;;;;;5.33;2.63;;;;;;;;;;5111871;28;20425;-66
2022/04/27 00:35:29;;;;;;;3.60;2.10;;;;;;;;;;5115175;28;20106;-66
2022/04/27 00:37:59;;;;;;;5.23;2.10;;;;;;;;;;5115428;28;20012;-67
2022/04/27 00:40:27;;;;;;;5.93;3.47;;;;;;;;;;5110488;28;20054;-69
2022/04/27 00:43:05;;;;;;;5.50;2.53;;;;;;;;;;5110441;28;20072;-68
2022/04/27 00:45:35;;;;;;;5.03;2.40;;;;;;;;;;5110524;28;20023;-68
2022/04/27 00:48:07;;;;;;;3.87;1.77;;;;;;;;;;5110521;28;20466;-68
2022/04/27 00:50:38;;;;;;;5.37;2.03;;;;;;;;;;5115525;28;20119;-69
2022/04/27 00:53:09;;;;;;;7.50;1.90;;;;;;;;;;5115735;28;20474;-68
2022/04/27 00:55:39;;;;;;;4.47;1.83;;;;;;;;;;5115231;28;20019;-69
2022/04/27 00:58:14;;;;;;;4.63;2.17;;;;;;;;;;5115595;28;20462;-68
2022/04/27 01:00:53;;;;;;;3.87;1.80;;;;;;;;;;5114191;28;20024;-68
2022/04/27 01:03:25;;;;;;;3.00;1.60;;;;;;;;;;5110248;28;20030;-68
2022/04/27 01:05:57;;;;;;;5.30;1.80;;;;;;;;;;5109519;28;20043;-67
2022/04/27 01:08:28;;;;;;;3.33;1.80;;;;;;;;;;5110283;28;20506;-68
2022/04/27 01:11:00;;;;;;;4.67;1.90;;;;;;;;;;5111092;28;20416;-68
2022/04/27 01:13:30;;;;;;;4.67;1.70;;;;;;;;;;5115514;28;20020;-67
2022/04/27 01:16:02;;;;;;;5.70;2.03;;;;;;;;;;5115415;28;20026;-68
2022/04/27 01:18:40;;;;;;;5.70;2.50;;;;;;;;;;5115203;28;20028;-67
2022/04/27 01:21:12;;;;;;;5.30;1.93;;;;;;;;;;5115027;28;20020;-68
2022/04/27 01:23:42;;;;;;;3.60;1.83;;;;;;;;;;5112921;28;20031;-68
2022/04/27 01:26:13;;;;;;;7.07;2.07;;;;;;;;;;5109619;28;20024;-67
2022/04/27 01:28:45;;;;;;;3.73;2.17;;;;;;;;;;5110079;28;20378;-67
2022/04/27 01:31:16;;;;;;;5.87;2.20;;;;;;;;;;5109961;28;20020;-67
2022/04/27 01:33:56;;;;;;;9.93;2.23;;;;;;;;;;5111176;28;20103;-67
2022/04/27 01:36:25;;;;;;;3.80;1.80;;;;;;;;;;5114947;28;20036;-67
2022/04/27 01:38:56;;;;;;;6.10;2.57;;;;;;;;;;5114821;28;20024;-67
2022/04/27 01:41:25;;;;;;;2.57;1.40;;;;;;;;;;5114967;28;20485;-67
2022/04/27 01:43:57;;;;;;;4.43;1.80;;;;;;;;;;5114736;28;20550;-67
2022/04/27 01:46:29;;;;;;;4.20;1.57;;;;;;;;;;5111535;28;20062;-67
2022/04/27 01:49:00;;;;;;;5.90;1.57;;;;;;;;;;5109674;28;20475;-68
2022/04/27 01:54:19;;;;;;;5.33;1.40;;;;;;;;;;5109519;28;20039;-67
2022/04/27 01:56:52;;;;;;;4.03;1.20;;;;;;;;;;5111933;28;20023;-68
2022/04/27 01:59:25;;;;;;;5.80;1.70;;;;;;;;;;5114307;28;20382;-68
2022/04/27 02:01:59;;;;;;;2.40;1.30;;;;;;;;;;5114542;28;20073;-67
2022/04/27 02:04:36;;;;;;;4.60;1.53;;;;;;;;;;5114285;28;20026;-67
2022/04/27 02:07:13;;;;;;;3.53;1.23;;;;;;;;;;5113936;28;20107;-68
2022/04/27 02:09:44;;;;;;;2.97;1.23;;;;;;;;;;5110260;28;20024;-67
2022/04/27 02:12:15;;;;;;;4.73;1.47;;;;;;;;;;5109159;28;20028;-67
2022/04/27 02:14:55;;;;;;;2.90;1.20;;;;;;;;;;5108775;28;20429;-67
2022/04/27 02:17:25;;;;;;;1.77;0.90;;;;;;;;;;5108542;28;20042;-67
2022/04/27 02:19:58;;;;;;;2.00;1.23;;;;;;;;;;5112823;28;20045;-67
2022/04/27 02:22:29;;;;;;;2.63;1.17;;;;;;;;;;5114122;28;20023;-67
2022/04/27 02:25:01;;;;;;;4.23;1.30;;;;;;;;;;5114043;28;20019;-67
2022/04/27 02:27:35;;;;;;;2.73;1.10;;;;;;;;;;5113505;28;20089;-67
2022/04/27 02:30:07;;;;;;;4.63;1.25;;;;;;;;;;5114155;28;20107;-67
2022/04/27 02:32:38;;;;;;;4.93;1.50;;;;;;;;;;5108728;28;20382;-67
2022/04/27 02:35:09;;;;;;;2.73;1.30;;;;;;;;;;5108793;28;20032;-67
2022/04/27 02:37:41;;;;;;;2.63;1.17;;;;;;;;;;5107717;28;20089;-67
2022/04/27 02:40:12;;;;;;;2.43;1.20;;;;;;;;;;5108427;28;20413;-67
2022/04/27 02:42:47;;;;;;;2.83;1.17;;;;;;;;;;5113131;28;20493;-67
2022/04/27 02:45:27;;;;;;;4.38;1.20;;;;;;;;;;5113534;28;20020;-67
2022/04/27 02:48:11;;;;;;;3.27;1.07;;;;;;;;;;5093270;28;20028;-66
2022/04/27 02:53:30;;;;;;;3.60;1.10;;;;;;;;;;5091911;28;20123;-66
2022/04/27 02:56:00;;;;;;;1.87;0.93;;;;;;;;;;5104357;28;20020;-67
2022/04/27 02:58:31;;;;;;;4.30;1.57;;;;;;;;;;5107674;28;20374;-67
2022/04/27 03:01:02;;;;;;;2.17;1.20;;;;;;;;;;5108057;28;20352;-67
2022/04/27 03:03:33;;;;;;;3.53;1.23;;;;;;;;;;5108616;28;20023;-69
2022/04/27 03:06:02;;;;;;;3.17;1.20;;;;;;;;;;5112554;28;20475;-67
2022/04/27 03:08:32;;;;;;;3.20;1.87;;;;;;;;;;5113139;28;20418;-67
2022/04/27 03:11:02;;;;;;;3.57;1.10;;;;;;;;;;5113132;28;20027;-67
2022/04/27 03:13:32;;;;;;;2.57;1.20;;;;;;;;;;5112698;28;20475;-68
2022/04/27 03:16:00;;;;;;;3.40;1.40;;;;;;;;;;5111808;28;20053;-69
2022/04/27 03:18:31;;;;;;;3.40;1.33;;;;;;;;;;5107756;28;20015;-69
2022/04/27 03:21:00;;;;;;;4.13;1.20;;;;;;;;;;5107776;28;20027;-68
2022/04/27 03:23:33;;;;;;;2.60;1.10;;;;;;;;;;5107214;28;20537;-69
2022/04/27 03:26:11;;;;;;;1.93;1.00;;;;;;;;;;5108196;28;20036;-69
2022/04/27 03:28:42;;;;;;;3.33;1.10;;;;;;;;;;5112270;28;20084;-68
2022/04/27 03:31:15;;;;;;;1.70;0.80;;;;;;;;;;5112835;28;20027;-69
2022/04/27 03:33:49;;;;;;;2.97;1.03;;;;;;;;;;5112690;28;20482;-69
2022/04/27 03:36:20;;;;;;;2.33;0.90;;;;;;;;;;5112842;28;20075;-69
2022/04/27 03:38:50;;;;;;;2.83;0.83;;;;;;;;;;5110428;28;20039;-68
2022/04/27 03:41:23;;;;;;;1.77;0.83;;;;;;;;;;5107295;28;20023;-67
2022/04/27 03:43:55;;;;;;;3.20;1.13;;;;;;;;;;5107291;28;20051;-69
2022/04/27 03:46:26;;;;;;;2.30;0.90;;;;;;;;;;5107355;28;20351;-70
2022/04/27 03:49:00;;;;;;;1.47;0.77;;;;;;;;;;5088578;28;20436;-71
2022/04/27 03:51:37;;;;;;;1.85;0.90;;;;;;;;;;5112326;28;20534;-71
2022/04/27 03:54:09;;;;;;;2.27;0.90;;;;;;;;;;5112468;28;20020;-69
2022/04/27 03:56:55;;;;;;;1.40;0.80;;;;;;;;;;5111941;28;20016;-70
2022/04/27 03:59:26;;;;;;;2.23;1.10;;;;;;;;;;5091997;28;20044;-70
2022/04/27 04:02:03;;;;;;;2.13;1.00;;;;;;;;;;5104065;28;20023;-70
2022/04/27 04:04:41;;;;;;;2.17;1.10;;;;;;;;;;5106511;28;20474;-70
2022/04/27 04:07:19;;;;;;;5.43;1.23;;;;;;;;;;5106497;28;20494;-69
2022/04/27 04:09:50;;;;;;;4.03;1.47;;;;;;;;;;5113403;28;20482;-70
2022/04/27 04:12:21;;;;;;;4.43;1.40;;;;;;;;;;5117110;28;20020;-70
2022/04/27 04:15:02;;;;;;;3.27;1.07;;;;;;;;;;5119100;28;20532;-70
2022/04/27 04:17:36;;;;;;;2.33;1.00;;;;;;;;;;5118619;28;20023;-71
2022/04/27 04:20:13;;;;;;;2.50;1.20;;;;;;;;;;5118890;28;20527;-68
2022/04/27 04:22:44;;;;;;;3.77;1.13;;;;;;;;;;5119102;28;20072;-69
2022/04/27 04:31:01;;;;;;;3.00;1.27;;;;;;;;;;5113495;28;20035;-70
2022/04/27 04:33:35;;;;;;;2.20;1.23;;;;;;;;;;5113199;28;20153;-70
2022/04/27 04:36:12;;;;;;;2.40;1.30;;;;;;;;;;5118945;28;20130;-70
2022/04/27 04:38:45;;;;;;;2.43;1.30;;;;;;;;;;5118065;28;20043;-70
2022/04/27 04:41:19;;;;;;;3.73;1.40;;;;;;;;;;5118844;28;20028;-70
2022/04/27 04:43:49;;;;;;;3.23;1.30;;;;;;;;;;5118642;28;20173;-70
2022/04/27 04:46:20;;;;;;;2.77;1.33;;;;;;;;;;5117119;28;20431;-69
2022/04/27 04:48:54;;;;;;;2.33;1.20;;;;;;;;;;5113234;28;20073;-69
2022/04/27 04:51:28;;;;;;;4.27;1.57;;;;;;;;;;5113580;28;20034;-69
2022/04/27 04:54:09;;;;;;;;;;;;;;;;;;;;;
2022/04/27 04:56:43;;;;;;;6.00;1.73;;;;;;;;;;5114854;28;20459;-69
2022/04/27 04:59:14;;;;;;;2.92;1.50;;;;;;;;;;5118511;28;20432;-69
2022/04/27 05:01:45;;;;;;;5.13;1.57;;;;;;;;;;5118524;28;20024;-70
2022/04/27 05:04:25;;;;;;;5.17;1.60;;;;;;;;;;5118535;28;20023;-70
2022/04/27 05:06:59;;;;;;;7.83;1.40;;;;;;;;;;5118257;28;20030;-69
2022/04/27 05:09:32;;;;;;;3.87;1.53;;;;;;;;;;5115547;28;20024;-69
2022/04/27 05:12:04;;;;;;;5.57;1.10;;;;;;;;;;5113358;28;20030;-69
2022/04/27 05:14:38;;;;;;;2.83;1.17;;;;;;;;;;5113348;28;20398;-69
2022/04/27 05:17:14;;;;;;;4.90;1.57;;;;;;;;;;5113374;28;20042;-69
2022/04/27 05:19:52;;;;;;;3.27;1.47;;;;;;;;;;5114059;28;20030;-69
2022/04/27 05:22:27;;;;;;;3.97;1.70;;;;;;;;;;5115264;28;20029;-69
2022/04/27 05:24:59;;;;;;;4.80;1.37;;;;;;;;;;5115068;28;20027;-68
2022/04/27 05:27:36;;;;;;;7.30;3.30;;;;;;;;;;5115087;28;20063;-69
2022/04/27 05:33:01;;;;;;;2.53;1.40;;;;;;;;;;5109950;28;20038;-69
2022/04/27 05:35:32;;;;;;;4.20;1.40;;;;;;;;;;5109900;28;20073;-69
2022/04/27 05:38:10;;;;;;;3.60;1.77;;;;;;;;;;5109358;28;20040;-69
2022/04/27 05:40:50;;;;;;;2.13;1.20;;;;;;;;;;5109052;28;20032;-69
2022/04/27 05:43:26;;;;;;;4.07;1.50;;;;;;;;;;5114939;28;20069;-69
2022/04/27 05:46:08;;;;;;;3.60;1.17;;;;;;;;;;5114703;28;20110;-69
2022/04/27 05:48:41;;;;;;;3.00;1.23;;;;;;;;;;5114786;28;20019;-69
2022/04/27 05:51:11;;;;;;;2.57;1.40;;;;;;;;;;5094382;28;20111;-69
2022/04/27 05:53:45;;;;;;;2.23;1.20;;;;;;;;;;5093174;28;20020;-69
2022/04/27 05:56:19;;;;;;;4.33;1.50;;;;;;;;;;5089040;28;20448;-69
2022/04/27 05:58:51;;;;;;;2.13;1.15;;;;;;;;;;5088986;28;20024;-69
2022/04/27 06:01:23;;;;;;;3.10;1.47;;;;;;;;;;5109137;28;20051;-69
2022/04/27 06:03:50;;;;;;;3.20;1.30;;;;;;;;;;5107390;28;20085;-69
2022/04/27 06:06:17;;;;;;;3.67;1.40;;;;;;;;;;5113942;28;20102;-69
2022/04/27 06:08:43;;;;;;;2.67;1.27;;;;;;;;;;5113211;28;20020;-69
2022/04/27 06:11:10;;;;;;;4.77;1.30;;;;;;;;;;5093986;28;20045;-69
2022/04/27 06:13:37;;;;;;;3.07;1.50;;;;;;;;;;5113005;28;20034;-69
2022/04/27 06:16:03;;;;;;;4.03;2.20;;;;;;;;;;5113181;28;20434;-69
2022/04/27 06:18:30;;;;;;;4.30;1.87;;;;;;;;;;5109052;28;20047;-69
2022/04/27 06:20:57;;;;;;;3.93;1.77;;;;;;;;;;5108780;28;20430;-69
2022/04/27 06:23:24;;;;;;;3.43;1.70;;;;;;;;;;5108675;28;20036;-69
2022/04/27 06:25:50;;;;;;;2.27;1.10;;;;;;;;;;5109044;28;20447;-69
2022/04/27 06:28:17;;;;;;;4.97;1.50;;;;;;;;;;5113808;28;20027;-69
2022/04/27 06:30:44;;;;;;;5.00;1.70;;;;;;;;;;5113608;28;20047;-69
2022/04/27 06:33:11;;;;;;;4.60;1.20;;;;;;;;;;5112533;28;20030;-69
2022/04/27 06:35:38;;;;;;;5.50;1.70;;;;;;;;;;5113579;28;20019;-69
2022/04/27 06:38:05;;;;;;;5.17;1.43;;;;;;;;;;5113839;28;20023;-69
2022/04/27 06:40:31;;;;;;;3.17;1.40;;;;;;;;;;5108731;28;20051;-69
2022/04/27 06:42:58;;;;;;;4.40;2.43;;;;;;;;;;5108279;28;20027;-69
2022/04/27 06:45:27;;;;;;;5.93;1.63;;;;;;;;;;5108104;28;20027;-69
2022/04/27 06:47:54;;;;;;;4.63;1.80;;;;;;;;;;5107930;28;20429;-69
2022/04/27 06:50:22;;;;;;;5.73;2.07;;;;;;;;;;5112123;28;20082;-69
2022/04/27 06:52:49;;;;;;;3.53;1.63;;;;;;;;;;5113494;28;20034;-69
2022/04/27 06:55:17;;;;;;;9.23;2.07;;;;;;;;;;5113078;28;20114;-69
2022/04/27 06:57:43;;;;;;;7.53;1.90;;;;;;;;;;5113466;28;20100;-69
2022/04/27 07:00:12;;;;;;;6.30;1.80;;;;;;;;;;5113432;28;20023;-69
2022/04/27 07:02:39;;;;;;;7.10;1.70;;;;;;;;;;5109362;28;20077;-68
2022/04/27 07:05:09;;;;;;;5.50;2.30;;;;;;;;;;5107881;28;20104;-68
2022/04/27 07:07:36;;;;;;;3.97;1.60;;;;;;;;;;5107566;28;20075;-68
2022/04/27 07:10:03;;;;;;;5.67;1.60;;;;;;;;;;5108024;28;20028;-68
2022/04/27 07:12:29;;;;;;;7.13;2.13;;;;;;;;;;5110382;28;20023;-69
2022/04/27 07:14:56;;;;;;;5.53;1.73;;;;;;;;;;5112609;28;20029;-68
2022/04/27 07:17:23;;;;;;;5.60;1.90;;;;;;;;;;5112943;28;20034;-68
2022/04/27 07:19:50;;;;;;;7.20;2.13;;;;;;;;;;5112988;28;20098;-68
2022/04/27 07:22:16;;;;;;;5.53;2.10;;;;;;;;;;5112998;28;20043;-68
2022/04/27 07:24:44;;;;;;;4.40;2.27;;;;;;;;;;5109681;28;20072;-69
2022/04/27 07:27:11;;;;;;;3.67;1.57;;;;;;;;;;5107600;28;20054;-69
2022/04/27 07:29:37;;;;;;;3.37;1.40;;;;;;;;;;5107475;28;20036;-69
2022/04/27 07:32:04;;;;;;;6.87;2.53;;;;;;;;;;5107187;28;20106;-69
2022/04/27 07:34:31;;;;;;;3.67;1.80;;;;;;;;;;5108835;28;20053;-67
2022/04/27 07:36:58;;;;;;;7.53;1.73;;;;;;;;;;5112903;28;20390;-68
2022/04/27 07:39:27;;;;;;;5.97;1.30;;;;;;;;;;5112723;28;20028;-67
2022/04/27 07:41:54;;;;;;;4.37;1.57;;;;;;;;;;5112438;28;20047;-67
2022/04/27 07:44:21;;;;;;;10.53;2.70;;;;;;;;;;5111879;28;20040;-68
2022/04/27 07:46:48;;;;;;;3.50;1.97;;;;;;;;;;5110700;28;20118;-68
2022/04/27 07:49:15;;;;;;;4.00;1.27;;;;;;;;;;5107188;28;20487;-68
2022/04/27 07:51:41;;;;;;;3.07;1.47;;;;;;;;;;5107012;28;20038;-68
2022/04/27 07:54:08;;;;;;;3.67;1.33;;;;;;;;;;5106971;28;20491;-69
2022/04/27 07:56:35;;;;;;;3.27;0.90;;;;;;;;;;5107999;28;20374;-69
2022/04/27 07:59:02;;;;;;;7.00;1.50;;;;;;;;;;5112237;28;20055;-69
2022/04/27 08:01:28;;;;;;;4.53;1.73;;;;;;;;;;5112436;28;20024;-69
2022/04/27 08:03:55;;;;;;;5.03;1.67;;;;;;;;;;5111864;28;20087;-68
2022/04/27 08:06:22;;;;;;;5.27;1.40;;;;;;;;;;5112281;28;20028;-68
2022/04/27 08:08:48;;;;;;;4.33;1.63;;;;;;;;;;5111891;28;20024;-68
2022/04/27 08:11:15;;;;;;;4.50;1.30;;;;;;;;;;5106778;28;20074;-68
2022/04/27 08:13:43;;;;;;;3.40;1.33;;;;;;;;;;5106551;28;20043;-68
2022/04/27 08:16:12;;;;;;;4.33;1.30;;;;;;;;;;5106858;28;20024;-68
2022/04/27 08:18:40;;;;;;;5.37;1.43;;;;;;;;;;5107045;28;20019;-68
2022/04/27 08:21:15;;;;;;;3.47;2.47;;;;;;;;;;5111941;28;20035;-67
2022/04/27 08:23:49;;;;;;;3.90;1.27;;;;;;;;;;5111965;28;20024;-67
2022/04/27 08:26:15;;;;;;;4.03;1.60;;;;;;;;;;5111770;28;20031;-67
2022/04/27 08:28:43;;;;;;;4.53;1.30;;;;;;;;;;5112361;28;20043;-67
2022/04/27 08:31:10;;;;;;;4.50;1.63;;;;;;;;;;5111777;28;20679;-67
2022/04/27 08:33:37;;;;;;;5.13;1.30;;;;;;;;;;5106476;28;20055;-68
2022/04/27 08:36:04;;;;;;;5.40;1.10;;;;;;;;;;5106522;28;20540;-68
2022/04/27 08:38:33;;;;;;;4.07;1.23;;;;;;;;;;5106799;28;20323;-68
2022/04/27 08:41:01;;;;;;;5.93;1.43;;;;;;;;;;5106238;28;20026;-69
2022/04/27 08:43:27;;;;;;;5.77;1.50;;;;;;;;;;5110990;28;20024;-69
2022/04/27 08:45:55;;;;;;;5.43;1.83;;;;;;;;;;5111638;28;20020;-68
2022/04/27 08:48:22;;;;;;;10.83;3.10;;;;;;;;;;5111875;28;20027;-68
2022/04/27 08:50:50;;;;;;;7.20;2.53;;;;;;;;;;5111858;28;20614;-68
2022/04/27 08:53:17;;;;;;;8.33;2.60;;;;;;;;;;5112039;28;20024;-68
2022/04/27 08:55:44;;;;;;;7.60;2.70;;;;;;;;;;5109223;28;20035;-69
2022/04/27 08:58:15;;;;;;;5.70;2.13;;;;;;;;;;5109687;28;20035;-69
2022/04/27 09:00:43;;;;;;;5.73;2.10;;;;;;;;;;5110573;28;20031;-69
2022/04/27 09:03:26;;;;;;;4.83;1.63;;;;;;;;;;5110263;28;20031;-69
2022/04/27 09:05:54;;;;;;;3.57;1.47;;;;;;;;;;5114382;28;20402;-69
2022/04/27 09:08:21;;;;;;;6.60;2.70;;;;;;;;;;5115066;28;20028;-68
2022/04/27 09:10:48;;;;;;;4.80;1.90;;;;;;;;;;5115767;28;20426;-68
2022/04/27 09:13:14;;;;;;;5.37;1.80;;;;;;;;;;5115425;28;20032;-68
2022/04/27 09:15:42;;;;;;;4.73;1.70;;;;;;;;;;5115325;28;20054;-69
2022/04/27 09:21:03;;;;;;;7.22;1.90;;;;;;;;;;5110159;28;20042;-69
2022/04/27 09:23:45;;;;;;;3.93;1.60;;;;;;;;;;5110038;28;20046;-68
2022/04/27 09:26:19;;;;;;;8.83;1.87;;;;;;;;;;5109739;28;20028;-68
2022/04/27 09:28:56;;;;;;;4.35;1.65;;;;;;;;;;5114911;28;20042;-67
2022/04/27 09:31:29;;;;;;;7.13;1.80;;;;;;;;;;5115068;28;20031;-68
2022/04/27 09:34:50;;;;;;;5.20;2.33;;;;;;;;;;5115158;28;20035;-68
2022/04/27 09:37:02;;;;;;;5.70;2.13;;;;;;;;;;5100257;28;20474;-68
2022/04/27 09:39:30;;;;;;;4.73;2.17;;;;;;;;;;5113271;28;20593;-68
2022/04/27 09:42:04;;;;;;;8.27;2.27;;;;;;;;;;5109637;28;20020;-68
2022/04/27 09:44:40;;;;;;;6.80;2.15;;;;;;;;;;5109281;28;20044;-68
2022/04/27 09:47:07;;;;;;;5.23;2.07;;;;;;;;;;5109555;28;20394;-68
2022/04/27 09:49:36;;;;;;;5.67;2.63;;;;;;;;;;5110150;28;20019;-68
2022/04/27 09:52:04;;;;;;;5.90;2.70;;;;;;;;;;5114709;28;20107;-67
2022/04/27 09:54:31;;;;;;;6.27;2.37;;;;;;;;;;5114689;28;20023;-67
2022/04/27 09:56:59;;;;;;;8.43;3.13;;;;;;;;;;5114788;28;20435;-68
2022/04/27 09:59:30;;;;;;;5.70;2.27;;;;;;;;;;5114400;28;20019;-68
2022/04/27 10:02:07;;;;;;;6.40;2.53;;;;;;;;;;5112856;28;20420;-68
2022/04/27 10:04:34;;;;;;;5.83;2.80;;;;;;;;;;5109064;28;20028;-68
2022/04/27 10:07:02;;;;;;;5.77;2.43;;;;;;;;;;5108921;28;20047;-68
2022/04/27 10:09:30;;;;;;;6.73;2.30;;;;;;;;;;5109030;28;20076;-67
2022/04/27 10:11:57;;;;;;;7.97;2.43;;;;;;;;;;5109773;28;20031;-68
2022/04/27 10:14:25;;;;;;;7.07;2.00;;;;;;;;;;5113627;28;20019;-68
2022/04/27 10:16:53;;;;;;;5.63;1.73;;;;;;;;;;5114006;28;20016;-68
2022/04/27 10:19:19;;;;;;;7.40;1.83;;;;;;;;;;5114397;28;20028;-68
2022/04/27 10:21:56;;;;;;;8.13;1.80;;;;;;;;;;5114187;28;20413;-68
2022/04/27 10:24:38;;;;;;;5.43;1.87;;;;;;;;;;5112963;28;20015;-68
2022/04/27 10:27:26;;;;;;;5.07;2.13;;;;;;;;;;5107895;28;20035;-68
2022/04/27 10:30:03;;;;;;;3.40;1.73;;;;;;;;;;5108435;28;20445;-67
2022/04/27 10:32:37;;;;;;;4.00;1.60;;;;;;;;;;5108623;28;20465;-67
2022/04/27 10:35:19;;;;;;;4.37;1.83;;;;;;;;;;5110547;28;20052;-68
2022/04/27 10:37:59;;;;;;;6.23;1.60;;;;;;;;;;5113735;28;20055;-67
2022/04/27 10:40:26;;;;;;;8.23;2.00;;;;;;;;;;5113748;28;20490;-70
2022/04/27 10:42:52;;;;;;;4.57;1.70;;;;;;;;;;5113762;28;20024;-67
2022/04/27 10:45:25;;;;;;;5.73;1.87;;;;;;;;;;5113670;28;20016;-68
2022/04/27 10:48:07;;;;;;;2.50;1.60;;;;;;;;;;5110431;28;20039;-68
2022/04/27 10:50:35;;;;;;;6.17;1.93;;;;;;;;;;5107651;28;20031;-68
2022/04/27 10:53:22;;;;;;;4.77;1.80;;;;;;;;;;5108223;28;20027;-68
2022/04/27 10:55:53;;;;;;;6.53;1.87;;;;;;;;;;5108079;28;20102;-66
2022/04/27 10:58:23;;;;;;;5.13;2.10;;;;;;;;;;5111548;28;20077;-66
2022/04/27 11:01:01;;;;;;;6.43;2.07;;;;;;;;;;5113226;28;20039;-66
2022/04/27 11:03:28;;;;;;;5.90;2.07;;;;;;;;;;5113275;28;20031;-67
2022/04/27 11:05:59;;;;;;;3.73;1.70;;;;;;;;;;5113238;28;20030;-66
2022/04/27 11:08:37;;;;;;;5.33;1.90;;;;;;;;;;5113387;28;20106;-66
2022/04/27 11:11:06;;;;;;;6.70;1.90;;;;;;;;;;5108656;28;20443;-66
2022/04/27 11:13:36;;;;;;;7.30;2.30;;;;;;;;;;5107611;28;20024;-66
2022/04/27 11:16:09;;;;;;;5.83;2.20;;;;;;;;;;5107998;28;20411;-66
2022/04/27 11:18:57;;;;;;;6.80;1.90;;;;;;;;;;5107054;28;20099;-66
2022/04/27 11:21:25;;;;;;;6.07;2.30;;;;;;;;;;5112467;28;20026;-67
2022/04/27 11:23:53;;;;;;;6.00;2.20;;;;;;;;;;5112987;28;20466;-67
2022/04/27 11:26:19;;;;;;;7.67;2.13;;;;;;;;;;5112550;28;20351;-67
2022/04/27 11:28:47;;;;;;;11.97;2.23;;;;;;;;;;5112890;28;20467;-67
2022/04/27 11:31:14;;;;;;;5.33;2.30;;;;;;;;;;5112758;28;20266;-66
2022/04/27 11:33:41;;;;;;;6.23;2.03;;;;;;;;;;5107806;28;20028;-67
2022/04/27 11:36:08;;;;;;;6.97;2.10;;;;;;;;;;5107655;28;20252;-66
2022/04/27 11:38:38;;;;;;;9.87;1.87;;;;;;;;;;5107559;28;20032;-66
2022/04/27 11:41:14;;;;;;;6.57;2.07;;;;;;;;;;5107403;28;20383;-67
2022/04/27 11:43:41;;;;;;;4.20;2.00;;;;;;;;;;5110998;28;20085;-67
2022/04/27 11:46:11;;;;;;;4.77;1.80;;;;;;;;;;5112600;28;20374;-67
2022/04/27 11:48:37;;;;;;;4.13;1.90;;;;;;;;;;5112441;28;20024;-69
2022/04/27 11:51:06;;;;;;;5.83;2.27;;;;;;;;;;5112583;28;20102;-68
2022/04/27 11:53:47;;;;;;;5.17;1.93;;;;;;;;;;5112302;28;20069;-68
2022/04/27 11:56:18;;;;;;;4.43;2.20;;;;;;;;;;5107447;28;20338;-67
2022/04/27 11:58:48;;;;;;;4.27;1.87;;;;;;;;;;5106900;28;20028;-67
2022/04/27 12:01:22;;;;;;;5.83;1.90;;;;;;;;;;5107066;28;20264;-68
2022/04/27 12:03:52;;;;;;;3.97;1.73;;;;;;;;;;5088657;28;20461;-67
2022/04/27 12:06:19;;;;;;;3.53;1.53;;;;;;;;;;5111222;28;20546;-67
2022/04/27 12:08:45;;;;;;;3.50;1.80;;;;;;;;;;5112076;28;20271;-67
2022/04/27 12:11:21;;;;;;;6.03;2.10;;;;;;;;;;5112257;28;20267;-67
2022/04/27 12:13:48;;;;;;;4.47;2.00;;;;;;;;;;5112237;28;20027;-67
2022/04/27 12:16:15;;;;;;;6.23;1.97;;;;;;;;;;5112316;28;20751;-67
2022/04/27 12:18:54;;;;;;;3.23;1.60;;;;;;;;;;5107845;28;20285;-68
2022/04/27 12:21:24;;;;;;;4.30;1.97;;;;;;;;;;5106743;28;20746;-68
2022/04/27 12:23:52;;;;;;;10.43;2.00;;;;;;;;;;5106633;28;20337;-67
2022/04/27 12:26:19;;;;;;;5.53;2.80;;;;;;;;;;5106958;28;20290;-67
2022/04/27 12:28:46;;;;;;;4.00;1.70;;;;;;;;;;5111567;28;20611;-68
2022/04/27 12:31:15;;;;;;;6.87;2.27;;;;;;;;;;5115774;28;20307;-67
2022/04/27 12:33:43;;;;;;;4.53;2.13;;;;;;;;;;5116227;28;20259;-67
2022/04/27 12:39:02;;;;;;;6.17;1.90;;;;;;;;;;5116190;28;20314;-67
2022/04/27 12:41:33;;;;;;;5.77;1.83;;;;;;;;;;5110802;28;20076;-67
2022/04/27 12:44:05;;;;;;;4.43;1.70;;;;;;;;;;5110835;28;20259;-67
2022/04/27 12:46:31;;;;;;;7.77;1.77;;;;;;;;;;5110314;28;20284;-67
2022/04/27 12:49:08;;;;;;;7.50;2.00;;;;;;;;;;5110595;28;20260;-67
2022/04/27 12:51:35;;;;;;;3.67;2.00;;;;;;;;;;5115299;28;20259;-67
2022/04/27 12:54:03;;;;;;;3.17;1.80;;;;;;;;;;5115683;28;20259;-67
2022/04/27 12:56:34;;;;;;;6.73;2.57;;;;;;;;;;5115381;28;20765;-67
2022/04/27 12:59:05;;;;;;;4.43;2.20;;;;;;;;;;5115523;28;20741;-68
2022/04/27 13:01:32;;;;;;;9.40;2.47;;;;;;;;;;5115640;28;20263;-67
2022/04/27 13:03:59;;;;;;;5.20;2.33;;;;;;;;;;5110715;28;20259;-68
2022/04/27 13:06:29;;;;;;;7.57;2.40;;;;;;;;;;5110323;28;20287;-67
2022/04/27 13:11:55;;;;;;;6.03;2.23;;;;;;;;;;5110133;28;20276;-67
2022/04/27 13:11:56;;;;;;;4.13;1.87;;;;;;;;;;5109423;28;20676;-67
2022/04/27 13:14:24;;;;;;;5.70;2.00;;;;;;;;;;5115423;28;20256;-67
2022/04/27 13:16:50;;;;;;;6.87;2.47;;;;;;;;;;5115496;28;20256;-67
2022/04/27 13:19:17;;;;;;;9.80;2.43;;;;;;;;;;5115432;28;20768;-67
2022/04/27 13:21:44;;;;;;;4.07;2.27;;;;;;;;;;5114976;28;20272;-67
2022/04/27 13:24:11;;;;;;;12.53;2.80;;;;;;;;;;5097213;28;20744;-67
2022/04/27 13:26:38;;;;;;;9.97;2.97;;;;;;;;;;5109531;28;20019;-67
2022/04/27 13:29:04;;;;;;;5.17;2.37;;;;;;;;;;5109881;28;20039;-68
2022/04/27 13:31:32;;;;;;;5.97;2.50;;;;;;;;;;5109781;28;20549;-67
2022/04/27 13:33:59;;;;;;;7.30;2.37;;;;;;;;;;5109858;28;20105;-68
2022/04/27 13:36:25;;;;;;;5.30;2.70;;;;;;;;;;5113958;28;20035;-68
2022/04/27 13:38:53;;;;;;;6.10;2.73;;;;;;;;;;5114730;28;20177;-68
2022/04/27 13:41:20;;;;;;;5.07;2.07;;;;;;;;;;5114265;28;20043;-68
2022/04/27 13:43:47;;;;;;;4.23;1.67;;;;;;;;;;5114660;28;20026;-68
2022/04/27 13:46:14;;;;;;;8.80;2.13;;;;;;;;;;5114153;28;20147;-68
2022/04/27 13:48:41;;;;;;;4.50;1.80;;;;;;;;;;5110468;28;20038;-68
2022/04/27 13:51:08;;;;;;;5.60;2.33;;;;;;;;;;5109551;28;20023;-68
2022/04/27 13:53:35;;;;;;;6.10;1.73;;;;;;;;;;5109107;28;20023;-68
2022/04/27 13:56:02;;;;;;;4.23;1.80;;;;;;;;;;5109517;28;20197;-68
2022/04/27 13:58:29;;;;;;;4.67;1.90;;;;;;;;;;5112272;28;20470;-68
2022/04/27 14:00:56;;;;;;;3.40;2.00;;;;;;;;;;5114633;28;20417;-68
2022/04/27 14:03:23;;;;;;;3.87;1.63;;;;;;;;;;5114214;28;20500;-69
2022/04/27 14:05:52;;;;;;;5.70;1.37;;;;;;;;;;5111916;28;20023;-67
2022/04/27 14:08:29;;;;;;;4.53;2.30;;;;;;;;;;5096418;28;20497;-68
2022/04/27 14:11:00;;;;;;;4.13;1.83;;;;;;;;;;5110959;28;20094;-70
2022/04/27 14:13:31;;;;;;;4.63;1.90;;;;;;;;;;5108915;28;20323;-68
2022/04/27 14:18:47;;;;;;;3.10;1.60;;;;;;;;;;5108783;28;20047;-68
2022/04/27 14:21:21;;;;;;;5.53;2.07;;;;;;;;;;5112783;28;20026;-68
2022/04/27 14:23:55;;;;;;;4.37;1.70;;;;;;;;;;5114153;28;20020;-68
2022/04/27 14:26:25;;;;;;;3.53;1.30;;;;;;;;;;5114265;28;20108;-68
2022/04/27 14:28:56;;;;;;;3.60;1.20;;;;;;;;;;5113777;28;20425;-69
2022/04/27 14:31:30;;;;;;;7.20;1.97;;;;;;;;;;5113487;28;20077;-68
2022/04/27 14:34:00;;;;;;;3.07;1.23;;;;;;;;;;5109188;28;20354;-68
2022/04/27 14:36:29;;;;;;;3.17;1.27;;;;;;;;;;5108290;28;20026;-63
2022/04/27 14:38:59;;;;;;;3.73;1.40;;;;;;;;;;5108635;28;20078;-64
2022/04/27 14:41:32;;;;;;;3.63;1.50;;;;;;;;;;5108100;28;20032;-66
2022/04/27 14:44:03;;;;;;;3.07;1.70;;;;;;;;;;5112423;28;20464;-65
2022/04/27 14:46:40;;;;;;;3.83;1.27;;;;;;;;;;5113608;28;20047;-64
2022/04/27 14:49:11;;;;;;;6.07;1.60;;;;;;;;;;5113719;28;20043;-67
2022/04/27 14:51:44;;;;;;;4.80;1.00;;;;;;;;;;5113444;28;20397;-67
2022/04/27 14:54:17;;;;;;;3.43;1.40;;;;;;;;;;5112374;28;20432;-67
2022/04/27 14:56:45;;;;;;;6.90;1.40;;;;;;;;;;5108092;28;20023;-70
2022/04/27 14:59:15;;;;;;;5.07;1.60;;;;;;;;;;5108385;28;20032;-70
2022/04/27 15:01:47;;;;;;;6.17;1.30;;;;;;;;;;5108030;28;20028;-69
2022/04/27 15:04:17;;;;;;;2.00;1.13;;;;;;;;;;5108064;28;20019;-68
2022/04/27 15:06:47;;;;;;;5.63;1.33;;;;;;;;;;5112723;28;20039;-69
2022/04/27 15:09:18;;;;;;;5.30;1.27;;;;;;;;;;5112408;28;20489;-70
2022/04/27 15:11:49;;;;;;;4.67;1.30;;;;;;;;;;5106121;28;20051;-70
2022/04/27 15:14:20;;;;;;;4.13;1.30;;;;;;;;;;5092448;28;20028;-69
2022/04/27 15:16:58;;;;;;;2.93;1.20;;;;;;;;;;5092414;28;20020;-69
2022/04/27 15:19:40;;;;;;;2.93;1.37;;;;;;;;;;5103369;28;20031;-69
2022/04/27 15:24:58;;;;;;;2.53;1.27;;;;;;;;;;5100388;28;20535;-68
2022/04/27 15:27:32;;;;;;;3.33;1.50;;;;;;;;;;5091055;28;20118;-68
2022/04/27 15:30:06;;;;;;;5.03;1.50;;;;;;;;;;5103629;28;20043;-68